Time;durP1;ratioP1;P1;durP2;ratioP2;P2;SDS_P1;SDS_P2;PMS_P1;PMS_P2;Temp;Humidity;BMP_temperature;BMP_pressure;BME280_temperature;BME280_humidity;BME280_pressure;Samples;Min_cycle;Max_cycle;Signal;HPM_P1;HPM_P2
2023/10/12 00:00:24;;;;;;;10.40;4.13;;;21.00;86.40;;;;;;4195203;28;20189;-56
2023/10/12 00:02:27;;;;;;;11.82;3.17;;;20.90;86.30;;;;;;4184769;28;20048;-56
2023/10/12 00:04:41;;;;;;;14.18;3.95;;;20.90;86.50;;;;;;4195344;28;20048;-56
2023/10/12 00:06:44;;;;;;;16.55;3.97;;;20.90;86.50;;;;;;4195383;28;20131;-58
2023/10/12 00:08:48;;;;;;;10.48;4.15;;;20.90;86.60;;;;;;4194937;28;20097;-58
2023/10/12 00:10:55;;;;;;;10.63;3.72;;;20.90;86.60;;;;;;4195317;28;20068;-59
2023/10/12 00:13:03;;;;;;;15.73;3.92;;;20.90;86.70;;;;;;4194754;28;20396;-59
2023/10/12 00:17:23;;;;;;;10.05;3.60;;;20.90;87.70;;;;;;4194795;28;20558;-59
2023/10/12 00:19:26;;;;;;;16.08;4.45;;;20.80;87.20;;;;;;4194806;28;20053;-58
2023/10/12 00:21:35;;;;;;;14.68;4.30;;;20.80;87.40;;;;;;4195021;28;20401;-58
2023/10/12 00:23:37;;;;;;;11.13;4.15;;;20.80;87.60;;;;;;4194687;28;20533;-59
2023/10/12 00:25:46;;;;;;;9.27;3.80;;;20.80;87.50;;;;;;4223828;27;20043;-58
2023/10/12 00:27:51;;;;;;;13.00;4.38;;;20.80;87.60;;;;;;4254551;27;20046;-59
2023/10/12 00:29:53;;;;;;;13.65;4.65;;;20.70;87.80;;;;;;4264350;27;20039;-58
2023/10/12 00:31:58;;;;;;;11.27;4.25;;;20.70;87.90;;;;;;4264579;27;20053;-58
2023/10/12 00:34:02;;;;;;;17.00;4.28;;;20.70;88.10;;;;;;4264531;27;20471;-58
2023/10/12 00:36:09;;;;;;;11.18;4.00;;;20.70;88.20;;;;;;4264466;27;20039;-55
2023/10/12 00:38:18;;;;;;;17.63;4.97;;;20.60;88.30;;;;;;4264235;27;20035;-56
2023/10/12 00:40:55;;;;;;;22.08;4.47;;;20.60;89.10;;;;;;4264703;27;20042;-56
2023/10/12 00:42:51;;;;;;;12.20;3.78;;;20.60;88.70;;;;;;4260510;27;20109;-59
2023/10/12 00:44:53;;;;;;;13.00;4.15;;;20.50;88.80;;;;;;4264125;27;20038;-56
2023/10/12 00:49:17;;;;;;;16.67;4.28;;;20.50;89.10;;;;;;4264140;27;20038;-59
2023/10/12 00:51:20;;;;;;;12.35;3.78;;;20.50;89.10;;;;;;4264387;27;20127;-58
2023/10/12 00:53:22;;;;;;;12.55;4.38;;;20.50;89.30;;;;;;4264299;27;20079;-58
2023/10/12 00:55:37;;;;;;;9.10;3.60;;;20.50;89.20;;;;;;4264088;27;20484;-58
2023/10/12 00:57:39;;;;;;;16.60;4.23;;;20.50;89.30;;;;;;4264293;27;20054;-57
2023/10/12 00:59:43;;;;;;;13.43;4.38;;;20.50;89.70;;;;;;4266696;27;20046;-58
2023/10/12 01:01:45;;;;;;;16.60;4.57;;;20.40;90.00;;;;;;4267628;27;20051;-56
2023/10/12 01:03:49;;;;;;;5.88;3.40;;;20.40;90.10;;;;;;4267483;27;20088;-58
2023/10/12 01:06:08;;;;;;;12.77;4.32;;;20.40;90.00;;;;;;4256249;27;20046;-58
2023/10/12 01:08:18;;;;;;;12.75;4.22;;;20.40;90.10;;;;;;4267919;27;20042;-58
2023/10/12 01:10:28;;;;;;;12.77;3.60;;;20.40;90.10;;;;;;4267516;27;20399;-57
2023/10/12 01:12:31;;;;;;;11.77;4.03;;;20.40;90.10;;;;;;4233767;27;20055;-58
2023/10/12 01:14:33;;;;;;;7.38;3.13;;;20.40;90.00;;;;;;4259028;27;20054;-54
2023/10/12 01:19:05;;;;;;;12.27;3.67;;;20.50;89.90;;;;;;4267774;27;20035;-55
2023/10/12 01:21:11;;;;;;;10.30;3.73;;;20.50;89.80;;;;;;4247434;27;20067;-54
2023/10/12 01:23:14;;;;;;;12.30;4.22;;;20.50;89.60;;;;;;4267521;27;20043;-56
2023/10/12 01:25:20;;;;;;;9.43;4.40;;;20.50;89.50;;;;;;4267436;27;20066;-57
2023/10/12 01:27:26;;;;;;;13.18;4.63;;;20.60;89.50;;;;;;4267337;27;20050;-56
2023/10/12 01:29:30;;;;;;;9.32;4.10;;;20.60;89.50;;;;;;4266675;27;20395;-54
2023/10/12 01:31:36;;;;;;;13.98;4.60;;;20.60;89.40;;;;;;4267575;27;20049;-55
2023/10/12 01:33:41;;;;;;;;;;;20.60;89.60;;;;;;4249526;27;20078;-55
2023/10/12 01:35:49;;;;;;;19.95;4.68;;;20.60;89.50;;;;;;4267023;27;19923;-55
2023/10/12 01:37:55;;;;;;;16.27;4.28;;;20.60;89.60;;;;;;4267081;27;20043;-55
2023/10/12 01:42:06;;;;;;;10.52;4.40;;;20.60;89.50;;;;;;4255296;27;20185;-60
2023/10/12 01:44:11;;;;;;;18.50;4.72;;;20.60;89.40;;;;;;4267371;27;20070;-59
2023/10/12 01:46:14;;;;;;;12.07;4.28;;;20.70;89.40;;;;;;4266748;27;20125;-59
2023/10/12 01:48:22;;;;;;;;;;;20.70;89.20;;;;;;4267388;27;20462;-59
2023/10/12 01:50:25;;;;;;;13.68;3.97;;;20.60;89.30;;;;;;4267149;27;20279;-59
2023/10/12 01:52:27;;;;;;;8.57;3.30;;;20.60;89.40;;;;;;4254783;27;20055;-59
2023/10/12 01:54:30;;;;;;;12.13;4.38;;;20.60;89.40;;;;;;4266094;27;20051;-56
2023/10/12 01:56:34;;;;;;;8.55;3.72;;;20.60;89.20;;;;;;4264957;27;20050;-59
2023/10/12 01:58:37;;;;;;;12.32;4.43;;;20.70;89.40;;;;;;4265768;27;20073;-58
2023/10/12 02:00:41;;;;;;;13.43;3.78;;;20.60;89.20;;;;;;4247466;28;20076;-56
2023/10/12 02:02:53;;;;;;;12.35;4.18;;;20.60;89.70;;;;;;4265721;27;20106;-59
2023/10/12 02:04:56;;;;;;;14.55;4.25;;;20.70;89.30;;;;;;4266135;27;20547;-55
2023/10/12 02:06:58;;;;;;;15.07;4.25;;;20.60;89.40;;;;;;4265560;27;20039;-55
2023/10/12 02:09:22;;;;;;;11.68;3.67;;;20.70;89.50;;;;;;4265197;27;20045;-56
2023/10/12 02:13:33;;;;;;;11.18;4.13;;;20.60;89.50;;;;;;4265783;27;20051;-55
2023/10/12 02:15:37;;;;;;;12.77;3.92;;;20.60;89.40;;;;;;4265660;27;20091;-56
2023/10/12 02:17:42;;;;;;;14.43;4.20;;;20.60;89.30;;;;;;4256049;27;20101;-59
2023/10/12 02:19:44;;;;;;;12.38;4.45;;;20.60;89.10;;;;;;4265832;27;20381;-58
2023/10/12 02:21:46;;;;;;;11.43;4.28;;;20.60;89.20;;;;;;4265445;27;20484;-58
2023/10/12 02:25:55;;;;;;;11.90;4.25;;;20.50;89.20;;;;;;4265607;27;20433;-56
2023/10/12 02:27:59;;;;;;;11.00;4.22;;;20.60;89.40;;;;;;4265242;27;20075;-57
2023/10/12 02:30:06;;;;;;;9.57;4.28;;;20.50;89.40;;;;;;4248778;28;20039;-56
2023/10/12 02:32:22;;;;;;;18.85;4.40;;;20.50;89.40;;;;;;4257269;27;20053;-58
2023/10/12 02:34:27;;;;;;;13.40;3.95;;;20.60;89.30;;;;;;4265527;27;20046;-58
2023/10/12 02:36:29;;;;;;;6.90;3.65;;;20.60;89.30;;;;;;4265443;27;20472;-58
2023/10/12 02:38:31;;;;;;;9.98;3.95;;;20.50;89.20;;;;;;4261767;27;20074;-57
2023/10/12 02:40:33;;;;;;;9.13;3.72;;;20.50;89.20;;;;;;4265244;27;20039;-58
2023/10/12 02:42:38;;;;;;;8.07;3.50;;;20.50;89.20;;;;;;4264897;27;20042;-57
2023/10/12 02:45:27;;;;;;;9.43;3.75;;;20.50;89.30;;;;;;4265184;27;20119;-58
2023/10/12 02:47:23;;;;;;;10.63;4.00;;;20.60;89.30;;;;;;4254211;27;20050;-58
2023/10/12 02:49:27;;;;;;;8.80;4.43;;;20.50;89.30;;;;;;4254598;27;20043;-58
2023/10/12 02:51:30;;;;;;;13.35;4.10;;;20.50;89.70;;;;;;4265211;27;20055;-58
2023/10/12 02:53:34;;;;;;;11.50;4.18;;;20.50;89.60;;;;;;4265898;27;20049;-58
2023/10/12 02:55:49;;;;;;;8.35;3.78;;;20.50;89.60;;;;;;4265517;27;20070;-58
2023/10/12 02:58:35;;;;;;;10.07;4.20;;;20.50;89.60;;;;;;4265755;27;20494;-57
2023/10/12 03:00:19;;;;;;;14.85;4.95;;;20.50;89.80;;;;;;4254993;27;20069;-57
2023/10/12 03:02:22;;;;;;;16.23;4.90;;;20.50;89.90;;;;;;4265546;27;20058;-58
2023/10/12 03:04:25;;;;;;;13.27;4.50;;;20.40;89.90;;;;;;4262578;27;20050;-58
2023/10/12 03:06:32;;;;;;;12.65;4.32;;;20.50;90.20;;;;;;4265801;27;20425;-57
2023/10/12 03:08:53;;;;;;;9.80;4.10;;;20.50;89.90;;;;;;4265490;27;20046;-58
2023/10/12 03:11:08;;;;;;;16.58;4.43;;;20.50;90.00;;;;;;4265549;27;20553;-57
2023/10/12 03:13:23;;;;;;;9.88;4.35;;;20.40;90.00;;;;;;4265353;27;20190;-57
2023/10/12 03:15:41;;;;;;;8.55;3.42;;;20.40;90.00;;;;;;4265791;27;20085;-58
2023/10/12 03:17:45;;;;;;;10.55;4.50;;;20.40;89.90;;;;;;4247087;27;20051;-58
2023/10/12 03:20:14;;;;;;;9.10;3.85;;;20.40;90.00;;;;;;4265468;27;20043;-57
2023/10/12 03:22:25;;;;;;;9.05;3.75;;;20.40;90.00;;;;;;4263591;27;20042;-58
2023/10/12 03:24:43;;;;;;;13.95;4.70;;;20.40;90.10;;;;;;4265182;27;20064;-58
2023/10/12 03:26:55;;;;;;;8.70;3.97;;;20.40;90.10;;;;;;4265643;27;20071;-58
2023/10/12 03:31:23;;;;;;;10.48;4.28;;;20.40;90.40;;;;;;4265325;27;20039;-56
2023/10/12 03:33:28;;;;;;;12.30;3.97;;;20.40;90.20;;;;;;4265120;27;20051;-58
2023/10/12 03:35:37;;;;;;;;;;;20.40;90.20;;;;;;4265738;27;20045;-58
2023/10/12 03:37:45;;;;;;;12.90;4.30;;;20.30;90.20;;;;;;4265310;27;19919;-58
2023/10/12 03:44:12;;;;;;;11.93;4.40;;;20.30;90.30;;;;;;4265115;27;19923;-58
2023/10/12 03:46:17;;;;;;;10.90;3.92;;;20.20;90.30;;;;;;4253832;27;20535;-58
2023/10/12 03:48:25;;;;;;;11.15;4.55;;;20.30;90.30;;;;;;4265168;27;20103;-57
2023/10/12 03:50:36;;;;;;;10.98;4.45;;;20.30;90.40;;;;;;4264705;27;20100;-58
2023/10/12 03:52:51;;;;;;;10.25;3.75;;;20.30;90.50;;;;;;4264482;27;20115;-58
2023/10/12 03:57:21;;;;;;;11.73;4.05;;;20.30;90.40;;;;;;4265040;27;20047;-58
2023/10/12 03:59:37;;;;;;;9.05;3.75;;;20.30;90.50;;;;;;4264905;27;20053;-58
2023/10/12 04:01:41;;;;;;;;;;;20.30;90.50;;;;;;4265336;27;20042;-58
2023/10/12 04:03:44;;;;;;;11.48;4.40;;;20.30;90.70;;;;;;4264981;27;19918;-56
2023/10/12 04:05:54;;;;;;;11.02;3.83;;;20.20;90.60;;;;;;4264728;27;20137;-56
2023/10/12 04:10:41;;;;;;;12.65;4.18;;;20.20;90.70;;;;;;4264459;27;20121;-56
2023/10/12 04:12:49;;;;;;;12.27;4.35;;;20.20;90.70;;;;;;4264741;27;20125;-58
2023/10/12 04:14:53;;;;;;;6.88;3.97;;;20.20;90.70;;;;;;4264523;27;20084;-57
2023/10/12 04:19:30;;;;;;;10.68;3.88;;;20.20;90.80;;;;;;4178330;28;20045;-57
2023/10/12 04:21:35;;;;;;;11.30;4.03;;;20.20;90.70;;;;;;4178159;28;20131;-57
2023/10/12 04:23:49;;;;;;;7.20;3.80;;;20.20;90.90;;;;;;4178357;28;20049;-55
2023/10/12 04:25:59;;;;;;;8.70;3.88;;;20.20;90.80;;;;;;4178265;28;20045;-57
2023/10/12 04:30:20;;;;;;;13.95;5.10;;;20.20;90.70;;;;;;4178148;28;20049;-57
2023/10/12 04:32:53;;;;;;;10.68;4.35;;;20.20;90.90;;;;;;4175215;28;20049;-57
2023/10/12 04:34:55;;;;;;;8.52;3.92;;;20.20;90.90;;;;;;4178434;28;20071;-57
2023/10/12 04:37:08;;;;;;;8.70;4.85;;;20.20;91.00;;;;;;4177655;28;20059;-57
2023/10/12 04:39:16;;;;;;;10.73;3.70;;;20.20;91.00;;;;;;4178378;28;20053;-54
2023/10/12 04:43:24;;;;;;;8.77;3.92;;;20.20;91.00;;;;;;4178622;28;20044;-59
2023/10/12 04:45:28;;;;;;;10.10;4.72;;;20.20;90.90;;;;;;4178900;28;20053;-58
2023/10/12 04:47:30;;;;;;;14.82;4.95;;;20.20;91.00;;;;;;4178151;28;20048;-55
2023/10/12 04:51:39;;;;;;;15.23;4.50;;;20.20;90.90;;;;;;4177571;28;20053;-55
2023/10/12 04:54:05;;;;;;;14.70;4.55;;;20.20;90.90;;;;;;4178330;28;20123;-58
2023/10/12 04:56:10;;;;;;;22.30;4.40;;;20.20;91.00;;;;;;4187135;28;20512;-58
2023/10/12 05:00:34;;;;;;;13.45;4.68;;;20.20;91.10;;;;;;4230285;28;20331;-57
2023/10/12 05:02:53;;;;;;;16.77;4.55;;;20.20;91.10;;;;;;4229959;28;20055;-58
2023/10/12 05:07:27;;;;;;;11.70;4.43;;;20.10;91.10;;;;;;4229938;28;20484;-58
2023/10/12 05:09:31;;;;;;;11.02;4.57;;;20.20;91.10;;;;;;4230111;28;20043;-58
2023/10/12 05:11:33;;;;;;;14.30;4.85;;;20.10;91.20;;;;;;4230138;28;20043;-57
2023/10/12 05:13:42;;;;;;;17.10;5.07;;;20.10;91.20;;;;;;4229944;28;20067;-58
2023/10/12 05:15:56;;;;;;;15.20;4.78;;;20.10;91.50;;;;;;4230193;28;20051;-58
2023/10/12 05:17:58;;;;;;;15.00;4.80;;;20.10;91.30;;;;;;4229966;28;20040;-58
2023/10/12 05:20:00;;;;;;;13.82;5.28;;;20.10;91.30;;;;;;4229889;28;20047;-58
2023/10/12 05:22:03;;;;;;;12.48;4.70;;;20.10;91.40;;;;;;4230091;28;20044;-58
2023/10/12 05:24:08;;;;;;;14.45;4.25;;;20.10;91.50;;;;;;4229833;28;20412;-58
2023/10/12 05:26:14;;;;;;;11.25;5.13;;;20.10;91.40;;;;;;4230420;28;20048;-55
2023/10/12 05:28:17;;;;;;;17.75;5.40;;;20.10;91.50;;;;;;4230108;28;20097;-56
2023/10/12 05:30:25;;;;;;;12.75;4.20;;;20.10;91.50;;;;;;4230128;28;20394;-56
2023/10/12 05:35:02;;;;;;;16.67;5.03;;;20.00;91.70;;;;;;4215235;28;20462;-58
2023/10/12 05:39:20;;;;;;;17.70;5.30;;;20.00;91.80;;;;;;4230003;28;20439;-57
2023/10/12 05:41:37;;;;;;;17.85;4.85;;;20.00;91.90;;;;;;4213440;28;20123;-56
2023/10/12 05:43:40;;;;;;;12.18;4.80;;;20.00;91.90;;;;;;4222851;28;20086;-54
2023/10/12 05:45:44;;;;;;;16.92;4.70;;;20.00;92.00;;;;;;4232798;28;20050;-58
2023/10/12 05:47:51;;;;;;;11.88;4.88;;;20.00;91.90;;;;;;4231961;28;20047;-58
2023/10/12 05:49:53;;;;;;;11.65;4.53;;;20.00;91.90;;;;;;4229210;28;20078;-55
2023/10/12 05:51:55;;;;;;;14.98;5.10;;;20.00;92.00;;;;;;4249102;27;20103;-55
2023/10/12 05:54:07;;;;;;;15.52;4.95;;;20.00;92.00;;;;;;4266841;27;20480;-57
2023/10/12 05:56:09;;;;;;;11.88;5.05;;;20.00;92.00;;;;;;4266990;27;20121;-55
2023/10/12 05:58:15;;;;;;;18.50;5.35;;;20.00;92.00;;;;;;4266960;27;20039;-56
2023/10/12 06:00:35;;;;;;;17.40;5.75;;;20.00;92.10;;;;;;4267549;27;20089;-57
2023/10/12 06:02:40;;;;;;;17.25;5.00;;;20.00;92.20;;;;;;4267798;27;20050;-56
2023/10/12 06:04:42;;;;;;;16.33;4.50;;;20.00;92.10;;;;;;4266588;27;20103;-57
2023/10/12 06:06:46;;;;;;;16.92;5.45;;;20.00;92.10;;;;;;4266814;27;20122;-58
2023/10/12 06:08:48;;;;;;;19.10;5.65;;;20.00;92.10;;;;;;4266861;27;20045;-58
2023/10/12 06:10:50;;;;;;;11.70;5.28;;;20.00;92.20;;;;;;4266592;27;20046;-58
2023/10/12 06:12:53;;;;;;;20.55;4.88;;;20.00;92.10;;;;;;4266818;27;20752;-58
2023/10/12 06:14:56;;;;;;;12.60;5.38;;;20.00;92.10;;;;;;4266742;27;20047;-57
2023/10/12 06:17:07;;;;;;;12.82;5.40;;;20.00;92.10;;;;;;4262594;27;20468;-58
2023/10/12 06:19:18;;;;;;;28.00;6.30;;;20.00;92.30;;;;;;4253307;27;20533;-58
2023/10/12 06:21:24;;;;;;;18.38;5.63;;;19.90;92.60;;;;;;4255388;27;20468;-57
2023/10/12 06:23:26;;;;;;;14.52;5.82;;;19.90;93.40;;;;;;4248391;27;20053;-58
2023/10/12 06:25:28;;;;;;;15.98;5.50;;;19.80;94.20;;;;;;4266805;27;20070;-60
2023/10/12 06:27:30;;;;;;;14.02;5.15;;;19.80;94.20;;;;;;4266824;27;20087;-57
2023/10/12 06:29:32;;;;;;;10.75;4.57;;;19.80;93.80;;;;;;4266633;27;20038;-57
2023/10/12 06:31:36;;;;;;;17.27;5.10;;;19.80;93.80;;;;;;4266812;27;20039;-56
2023/10/12 06:33:41;;;;;;;36.63;8.00;;;19.80;94.30;;;;;;4266394;27;20111;-57
2023/10/12 06:36:00;;;;;;;22.45;6.75;;;19.60;95.20;;;;;;4266564;27;20392;-60
2023/10/12 06:38:23;;;;;;;28.17;7.32;;;19.60;95.20;;;;;;4266414;27;20043;-56
2023/10/12 06:42:29;;;;;;;30.58;7.22;;;19.30;97.60;;;;;;4266473;27;20446;-55
2023/10/12 06:44:33;;;;;;;19.50;6.80;;;19.20;98.60;;;;;;4266140;27;20047;-55
2023/10/12 06:46:44;;;;;;;;;;;19.10;98.90;;;;;;4266581;27;20047;-57
2023/10/12 06:48:47;;;;;;;25.23;8.57;;;18.90;98.70;;;;;;4266334;27;19919;-55
2023/10/12 06:51:02;;;;;;;24.52;9.27;;;18.70;99.90;;;;;;4265797;27;20050;-55
2023/10/12 06:53:06;;;;;;;16.23;6.72;;;18.60;99.90;;;;;;4266332;27;20043;-57
2023/10/12 06:55:21;;;;;;;14.10;6.70;;;18.50;99.90;;;;;;4265999;27;20047;-55
2023/10/12 06:59:35;;;;;;;29.17;10.65;;;18.40;99.90;;;;;;4266543;27;20357;-59
2023/10/12 07:03:52;;;;;;;15.50;7.60;;;18.20;99.90;;;;;;4266271;27;20051;-56
2023/10/12 07:05:55;;;;;;;14.25;7.55;;;18.20;99.90;;;;;;4266085;27;20038;-55
2023/10/12 07:07:58;;;;;;;13.50;6.75;;;18.20;99.90;;;;;;4266003;27;20486;-55
2023/10/12 07:12:17;;;;;;;21.10;9.63;;;18.10;99.90;;;;;;4265791;27;20049;-55
2023/10/12 07:14:30;;;;;;;16.55;8.35;;;18.10;99.90;;;;;;4265770;27;20043;-54
2023/10/12 07:16:40;;;;;;;16.20;7.50;;;18.10;99.90;;;;;;4265281;27;20511;-54
2023/10/12 07:18:44;;;;;;;22.98;8.82;;;18.10;99.90;;;;;;4258065;27;20062;-54
2023/10/12 07:20:46;;;;;;;16.77;7.43;;;18.10;99.90;;;;;;4265667;27;20104;-55
2023/10/12 07:22:48;;;;;;;18.40;8.40;;;18.10;99.90;;;;;;4265658;27;20046;-54
2023/10/12 07:24:53;;;;;;;16.35;8.30;;;18.10;99.90;;;;;;4265791;27;20046;-55
2023/10/12 07:27:09;;;;;;;15.40;7.93;;;18.10;99.90;;;;;;4265527;27;20039;-55
2023/10/12 07:29:19;;;;;;;14.57;7.15;;;18.10;99.90;;;;;;4265670;27;20043;-57
2023/10/12 07:31:38;;;;;;;22.08;8.60;;;18.20;99.90;;;;;;4264921;27;20057;-57
2023/10/12 07:33:59;;;;;;;17.80;7.90;;;18.10;99.90;;;;;;4265499;27;20035;-55
2023/10/12 07:36:11;;;;;;;19.73;8.52;;;18.20;99.90;;;;;;4265713;27;20467;-55
2023/10/12 07:38:14;;;;;;;12.80;7.07;;;18.20;99.90;;;;;;4265241;27;20046;-55
2023/10/12 07:40:18;;;;;;;16.88;8.32;;;18.30;99.90;;;;;;4265543;27;20047;-55
2023/10/12 07:42:27;;;;;;;26.63;9.25;;;18.30;99.90;;;;;;4265353;27;20305;-55
2023/10/12 07:45:14;;;;;;;17.83;8.52;;;18.30;99.90;;;;;;4265113;27;20178;-57
2023/10/12 07:46:58;;;;;;;21.08;8.00;;;18.30;99.90;;;;;;4251709;27;20507;-57
2023/10/12 07:49:22;;;;;;;22.08;8.65;;;18.30;99.90;;;;;;4265260;27;20118;-57
2023/10/12 07:51:26;;;;;;;23.77;8.82;;;18.30;99.90;;;;;;4264972;27;20050;-57
2023/10/12 07:53:29;;;;;;;15.35;8.80;;;18.30;99.90;;;;;;4265135;27;20046;-56
2023/10/12 07:55:31;;;;;;;16.80;8.60;;;18.40;99.90;;;;;;4265328;27;20050;-58
2023/10/12 07:57:36;;;;;;;23.17;9.07;;;18.40;99.90;;;;;;4264976;27;20053;-58
2023/10/12 07:59:38;;;;;;;25.27;10.13;;;18.50;99.90;;;;;;4253264;27;20500;-55
2023/10/12 08:01:47;;;;;;;20.77;8.65;;;18.50;99.90;;;;;;4265183;27;20118;-57
2023/10/12 08:03:52;;;;;;;33.08;13.50;;;18.50;99.90;;;;;;4264981;27;20503;-57
2023/10/12 08:05:59;;;;;;;41.80;14.73;;;18.50;99.90;;;;;;4265250;27;20050;-57
2023/10/12 08:10:09;;;;;;;21.73;10.33;;;18.60;99.90;;;;;;4265131;27;20041;-57
2023/10/12 08:12:24;;;;;;;18.65;8.95;;;18.60;99.90;;;;;;4264905;27;20047;-58
2023/10/12 08:16:29;;;;;;;17.92;9.23;;;18.50;99.90;;;;;;4264843;27;20081;-57
2023/10/12 08:19:09;;;;;;;22.27;7.78;;;18.60;99.90;;;;;;4255350;27;20500;-57
2023/10/12 08:23:32;;;;;;;15.73;8.52;;;18.60;99.90;;;;;;4264400;27;20042;-58
2023/10/12 08:25:40;;;;;;;16.20;9.10;;;18.70;99.90;;;;;;4264847;27;20065;-57
2023/10/12 08:28:02;;;;;;;18.95;8.70;;;18.70;99.90;;;;;;4265016;27;20053;-56
2023/10/12 08:30:13;;;;;;;;;;;18.80;99.90;;;;;;4246478;27;20061;-57
2023/10/12 08:32:37;;;;;;;16.35;8.27;;;18.70;99.90;;;;;;4264669;27;19918;-57
2023/10/12 08:39:08;;;;;;;18.27;8.57;;;18.90;99.90;;;;;;4264282;27;20087;-58
2023/10/12 08:43:47;;;;;;;14.70;7.20;;;19.00;99.90;;;;;;4264302;27;20043;-57
2023/10/12 08:45:53;;;;;;;14.75;7.57;;;19.10;99.90;;;;;;4264373;27;20154;-57
2023/10/12 08:48:01;;;;;;;15.82;7.95;;;19.10;99.90;;;;;;4264543;27;20047;-58
2023/10/12 08:50:08;;;;;;;17.23;8.15;;;19.20;99.90;;;;;;4264488;27;20342;-57
2023/10/12 08:52:20;;;;;;;28.00;8.55;;;19.20;99.90;;;;;;4264170;27;20090;-57
2023/10/12 08:54:27;;;;;;;23.75;7.57;;;19.20;99.90;;;;;;4264594;27;20047;-57
2023/10/12 08:56:35;;;;;;;28.95;9.15;;;19.20;99.90;;;;;;4264493;27;20046;-57
2023/10/12 08:58:46;;;;;;;14.38;7.80;;;19.30;99.90;;;;;;4264395;27;20050;-57
2023/10/12 09:03:06;;;;;;;16.92;8.35;;;19.30;99.90;;;;;;4264663;27;20074;-58
2023/10/12 09:05:12;;;;;;;19.10;8.27;;;19.40;99.90;;;;;;4264312;27;20043;-57
2023/10/12 09:07:19;;;;;;;13.95;7.10;;;19.40;99.90;;;;;;4259208;27;20083;-57
2023/10/12 09:10:28;;;;;;;19.73;7.65;;;19.50;99.90;;;;;;4247604;27;20053;-56
2023/10/12 09:11:45;;;;;;;21.20;7.72;;;19.60;99.90;;;;;;4235748;27;20130;-57
2023/10/12 09:13:47;;;;;;;15.88;6.65;;;19.70;99.90;;;;;;4253759;27;20067;-57
2023/10/12 09:15:54;;;;;;;16.65;7.88;;;19.70;99.90;;;;;;4262252;27;20096;-56
2023/10/12 09:17:58;;;;;;;16.95;7.55;;;19.80;99.90;;;;;;4253410;27;20400;-56
2023/10/12 09:20:58;;;;;;;17.50;7.72;;;19.80;99.90;;;;;;4257472;27;20382;-56
2023/10/12 09:22:29;;;;;;;18.05;6.93;;;19.90;99.90;;;;;;4240906;27;20059;-57
2023/10/12 09:24:35;;;;;;;16.65;7.45;;;19.80;99.90;;;;;;4267336;27;20157;-57
2023/10/12 09:26:40;;;;;;;15.63;8.45;;;19.80;99.90;;;;;;4257391;27;20130;-56
2023/10/12 09:30:50;;;;;;;19.67;7.65;;;19.90;99.90;;;;;;4264663;27;20042;-57
2023/10/12 09:33:06;;;;;;;16.75;8.10;;;19.90;99.90;;;;;;4257488;27;20103;-58
2023/10/12 09:35:14;;;;;;;16.88;8.25;;;19.90;99.90;;;;;;4267239;27;20459;-57
2023/10/12 09:37:17;;;;;;;21.10;7.55;;;19.90;99.90;;;;;;4266088;27;20051;-57
2023/10/12 09:39:27;;;;;;;41.35;18.35;;;19.90;99.90;;;;;;4266975;27;20050;-57
2023/10/12 09:41:39;;;;;;;25.17;9.02;;;19.90;99.90;;;;;;4266647;27;20735;-57
2023/10/12 09:43:44;;;;;;;20.20;11.18;;;19.80;99.90;;;;;;4257420;27;20063;-57
2023/10/12 09:45:47;;;;;;;;;;;19.90;99.90;;;;;;4251598;27;20147;-57
2023/10/12 09:47:57;;;;;;;23.65;10.85;;;19.80;99.90;;;;;;4262894;27;19961;-57
2023/10/12 09:50:13;;;;;;;20.73;9.18;;;19.80;99.90;;;;;;4249569;27;20043;-56
2023/10/12 09:52:18;;;;;;;;;;;19.70;99.90;;;;;;4262719;27;20469;-56
2023/10/12 09:54:27;;;;;;;17.50;9.20;;;19.80;99.90;;;;;;4265044;27;19979;-55
2023/10/12 09:56:46;;;;;;;15.52;8.82;;;19.80;99.90;;;;;;4265834;27;20038;-57
2023/10/12 09:58:52;;;;;;;23.55;8.73;;;19.90;99.90;;;;;;4256622;27;20070;-61
2023/10/12 10:01:01;;;;;;;21.55;10.07;;;19.90;99.90;;;;;;4266254;27;20121;-56
2023/10/12 10:03:08;;;;;;;19.38;9.57;;;20.00;99.90;;;;;;4266031;27;20043;-57
2023/10/12 10:05:26;;;;;;;19.92;9.68;;;20.00;99.90;;;;;;4249465;27;20071;-57
2023/10/12 10:07:36;;;;;;;16.95;10.07;;;20.10;99.90;;;;;;4264873;27;20122;-56
2023/10/12 10:09:38;;;;;;;19.48;9.75;;;20.20;99.90;;;;;;4265639;27;20096;-55
2023/10/12 10:11:41;;;;;;;20.98;9.32;;;20.20;99.90;;;;;;4247440;27;20076;-57
2023/10/12 10:13:46;;;;;;;22.60;9.10;;;20.30;99.90;;;;;;4247307;27;20043;-56
2023/10/12 10:15:59;;;;;;;18.55;9.30;;;20.30;99.90;;;;;;4265827;27;20434;-57
2023/10/12 10:18:04;;;;;;;24.30;8.48;;;20.40;99.90;;;;;;4260238;27;20121;-56
2023/10/12 10:22:31;;;;;;;19.27;11.38;;;20.50;99.90;;;;;;4265128;27;20045;-56
2023/10/12 10:24:43;;;;;;;23.52;9.77;;;20.50;99.90;;;;;;4254405;27;20092;-56
2023/10/12 10:26:56;;;;;;;22.90;9.25;;;20.50;99.90;;;;;;4265816;27;20068;-56
2023/10/12 10:29:05;;;;;;;20.88;8.77;;;20.50;99.90;;;;;;4264902;27;20438;-56
2023/10/12 10:31:11;;;;;;;16.98;8.18;;;20.40;99.90;;;;;;4264872;27;20620;-56
2023/10/12 10:33:22;;;;;;;18.27;8.35;;;20.50;99.90;;;;;;4266587;27;20130;-55
2023/10/12 10:35:55;;;;;;;16.80;9.25;;;20.50;99.90;;;;;;4265567;27;20089;-56
2023/10/12 10:37:59;;;;;;;16.55;8.65;;;20.60;99.90;;;;;;4265135;27;20403;-56
2023/10/12 10:40:07;;;;;;;27.13;8.90;;;20.60;99.90;;;;;;4265232;27;20130;-55
2023/10/12 10:42:10;;;;;;;15.13;9.45;;;20.60;99.90;;;;;;4265613;27;20495;-56
2023/10/12 10:44:21;;;;;;;14.32;7.55;;;20.70;99.90;;;;;;4264914;27;20546;-57
2023/10/12 10:46:26;;;;;;;15.98;8.20;;;20.70;99.90;;;;;;4246663;27;20115;-57
2023/10/12 10:48:33;;;;;;;19.42;8.75;;;20.70;99.90;;;;;;4264305;27;20109;-56
2023/10/12 10:50:56;;;;;;;16.92;7.50;;;20.80;99.90;;;;;;4263635;27;20043;-56
2023/10/12 10:52:59;;;;;;;13.45;8.05;;;20.80;99.90;;;;;;4262626;27;20049;-56
2023/10/12 10:55:02;;;;;;;14.60;7.57;;;20.80;99.90;;;;;;4262424;27;20046;-56
2023/10/12 10:57:15;;;;;;;16.58;8.05;;;20.90;99.90;;;;;;4265444;27;20114;-56
2023/10/12 10:59:18;;;;;;;19.52;8.73;;;21.00;99.90;;;;;;4261597;27;20126;-56
2023/10/12 11:01:21;;;;;;;15.40;8.07;;;21.00;99.90;;;;;;4267401;27;20461;-56
2023/10/12 11:03:25;;;;;;;17.92;7.78;;;21.00;99.90;;;;;;4269075;27;20046;-56
2023/10/12 11:05:29;;;;;;;16.77;7.97;;;21.00;99.90;;;;;;4265125;27;20047;-56
2023/10/12 11:07:31;;;;;;;16.10;7.82;;;21.00;99.90;;;;;;4264938;27;20066;-57
2023/10/12 11:10:31;;;;;;;16.55;8.25;;;21.10;99.90;;;;;;4264891;27;20035;-56
2023/10/12 11:11:59;;;;;;;14.32;7.50;;;21.10;99.90;;;;;;4233553;27;20080;-56
2023/10/12 11:14:02;;;;;;;17.65;8.35;;;21.20;99.90;;;;;;4251211;27;20042;-56
2023/10/12 11:18:26;;;;;;;291.02;32.83;;;21.40;99.90;;;;;;4258256;27;20547;-56
2023/10/12 11:20:38;;;;;;;59.10;13.32;;;21.40;99.90;;;;;;4260503;27;20047;-56
2023/10/12 11:22:42;;;;;;;71.10;10.65;;;21.40;99.90;;;;;;4262351;27;20623;-56
2023/10/12 11:24:45;;;;;;;127.53;16.30;;;21.40;99.90;;;;;;4255147;27;20106;-56
2023/10/12 11:26:52;;;;;;;101.45;14.40;;;21.50;99.90;;;;;;4264501;27;20046;-56
2023/10/12 11:29:04;;;;;;;138.98;17.35;;;21.50;99.90;;;;;;4264954;27;20078;-56
2023/10/12 11:31:30;;;;;;;172.80;20.45;;;21.60;99.90;;;;;;4264061;27;20050;-56
2023/10/12 11:33:35;;;;;;;153.32;18.00;;;21.60;99.90;;;;;;4252296;27;20118;-55
2023/10/12 11:35:40;;;;;;;101.70;15.45;;;21.60;99.90;;;;;;4256169;27;20074;-56
2023/10/12 11:37:43;;;;;;;26.45;8.90;;;21.70;99.90;;;;;;4259318;27;20050;-56
2023/10/12 11:39:46;;;;;;;21.67;8.68;;;21.70;99.90;;;;;;4264327;27;20463;-55
2023/10/12 11:42:04;;;;;;;21.70;8.98;;;21.80;99.90;;;;;;4263652;27;20038;-56
2023/10/12 11:44:07;;;;;;;26.08;9.07;;;21.80;99.90;;;;;;4264002;27;20060;-55
2023/10/12 11:46:10;;;;;;;20.98;8.43;;;21.80;99.90;;;;;;4263790;27;20043;-56
2023/10/12 11:48:21;;;;;;;21.73;8.35;;;21.80;99.90;;;;;;4257418;27;20118;-56
2023/10/12 11:50:34;;;;;;;22.13;8.48;;;21.90;99.90;;;;;;4252736;27;20046;-56
2023/10/12 11:52:39;;;;;;;21.42;8.98;;;21.90;99.90;;;;;;4259744;27;20519;-56
2023/10/12 11:54:41;;;;;;;22.40;9.52;;;22.00;99.90;;;;;;4260639;27;20080;-57
2023/10/12 11:56:43;;;;;;;17.17;7.80;;;22.00;99.90;;;;;;4262528;27;20107;-56
2023/10/12 11:58:50;;;;;;;18.10;8.52;;;22.00;99.90;;;;;;4264060;27;20480;-57
2023/10/12 12:00:52;;;;;;;16.23;8.00;;;22.10;99.90;;;;;;4244934;27;20035;-56
2023/10/12 12:02:59;;;;;;;18.95;8.48;;;22.10;99.90;;;;;;4264300;27;20039;-56
2023/10/12 12:05:04;;;;;;;20.02;9.13;;;22.10;99.90;;;;;;4264024;27;20051;-56
2023/10/12 12:07:10;;;;;;;21.35;9.57;;;22.10;99.90;;;;;;4263510;27;20049;-56
2023/10/12 12:09:17;;;;;;;24.80;10.35;;;22.10;99.90;;;;;;4264310;27;20054;-57
2023/10/12 12:11:19;;;;;;;27.00;10.35;;;22.20;99.90;;;;;;4264204;27;20045;-56